Time;durP1;ratioP1;P1;durP2;ratioP2;P2;SDS_P1;SDS_P2;PMS_P1;PMS_P2;Temp;Humidity;BMP_temperature;BMP_pressure;BME280_temperature;BME280_humidity;BME280_pressure;Samples;Min_cycle;Max_cycle;Signal;HPM_P1;HPM_P2
2023/03/09 00:01:22;;;;;;;3.2;2.7;;;;;;;;;;;;;
2023/03/09 00:03:51;;;;;;;3.4;3.1;;;;;;;;;;;;;
2023/03/09 00:06:20;;;;;;;3.2;2.5;;;;;;;;;;;;;
2023/03/09 00:08:46;;;;;;;3.4;2.9;;;;;;;;;;;;;
2023/03/09 00:11:10;;;;;;;4.5;3.4;;;;;;;;;;;;;
2023/03/09 00:13:44;;;;;;;4;2.5;;;;;;;;;;;;;
2023/03/09 00:16:11;;;;;;;10.1;6.7;;;;;;;;;;;;;
2023/03/09 00:18:40;;;;;;;4;2.7;;;;;;;;;;;;;
2023/03/09 00:21:14;;;;;;;2.3;1.6;;;;;;;;;;;;;
2023/03/09 00:23:33;;;;;;;3.1;1.5;;;;;;;;;;;;;
2023/03/09 00:26:00;;;;;;;3.5;2.2;;;;;;;;;;;;;
2023/03/09 00:28:25;;;;;;;4.8;3.6;;;;;;;;;;;;;
2023/03/09 00:30:56;;;;;;;3.6;3.3;;;;;;;;;;;;;
2023/03/09 00:33:21;;;;;;;3.1;2.8;;;;;;;;;;;;;
2023/03/09 00:35:52;;;;;;;2.9;1.6;;;;;;;;;;;;;
2023/03/09 00:38:27;;;;;;;2.5;1.7;;;;;;;;;;;;;
2023/03/09 00:41:01;;;;;;;1.7;1.6;;;;;;;;;;;;;
2023/03/09 00:43:27;;;;;;;1.8;1.5;;;;;;;;;;;;;
2023/03/09 00:45:52;;;;;;;1.6;1.5;;;;;;;;;;;;;
2023/03/09 00:48:23;;;;;;;2.8;1.4;;;;;;;;;;;;;
2023/03/09 00:50:50;;;;;;;2;1.7;;;;;;;;;;;;;
2023/03/09 00:53:15;;;;;;;2.9;2.4;;;;;;;;;;;;;
2023/03/09 00:55:41;;;;;;;2.2;2;;;;;;;;;;;;;
2023/03/09 00:58:07;;;;;;;1.9;1.3;;;;;;;;;;;;;
2023/03/09 01:00:34;;;;;;;1.7;1.3;;;;;;;;;;;;;
2023/03/09 01:03:00;;;;;;;2.3;1.1;;;;;;;;;;;;;
2023/03/09 01:05:25;;;;;;;1.8;1.1;;;;;;;;;;;;;
2023/03/09 01:07:52;;;;;;;1.7;1.2;;;;;;;;;;;;;
2023/03/09 01:10:17;;;;;;;0.9;0.8;;;;;;;;;;;;;
2023/03/09 01:12:42;;;;;;;1;0.9;;;;;;;;;;;;;
2023/03/09 01:15:07;;;;;;;1.3;1.1;;;;;;;;;;;;;
2023/03/09 01:17:32;;;;;;;1.6;1.2;;;;;;;;;;;;;
2023/03/09 01:19:59;;;;;;;1.1;1;;;;;;;;;;;;;
2023/03/09 01:22:24;;;;;;;2.9;1.8;;;;;;;;;;;;;
2023/03/09 01:24:49;;;;;;;1.1;1;;;;;;;;;;;;;
2023/03/09 01:27:14;;;;;;;1.1;1;;;;;;;;;;;;;
2023/03/09 01:29:41;;;;;;;1.2;1.1;;;;;;;;;;;;;
2023/03/09 01:32:06;;;;;;;1.5;1.1;;;;;;;;;;;;;
2023/03/09 01:34:34;;;;;;;1.1;1.1;;;;;;;;;;;;;
2023/03/09 01:36:59;;;;;;;0.7;0.7;;;;;;;;;;;;;
2023/03/09 01:39:24;;;;;;;1.2;1.1;;;;;;;;;;;;;
2023/03/09 01:41:49;;;;;;;1.4;1;;;;;;;;;;;;;
2023/03/09 01:44:14;;;;;;;1.4;1.2;;;;;;;;;;;;;
2023/03/09 01:46:40;;;;;;;1;1;;;;;;;;;;;;;
2023/03/09 01:49:05;;;;;;;1.3;1;;;;;;;;;;;;;
2023/03/09 01:51:30;;;;;;;1.1;1;;;;;;;;;;;;;
2023/03/09 01:53:55;;;;;;;1.5;0.9;;;;;;;;;;;;;
2023/03/09 01:56:20;;;;;;;1.1;1;;;;;;;;;;;;;
2023/03/09 01:58:46;;;;;;;1.4;1.1;;;;;;;;;;;;;
2023/03/09 02:01:11;;;;;;;1.7;1.1;;;;;;;;;;;;;
2023/03/09 02:03:38;;;;;;;1.7;1;;;;;;;;;;;;;
2023/03/09 02:06:03;;;;;;;1;0.8;;;;;;;;;;;;;
2023/03/09 02:08:28;;;;;;;1.3;1.2;;;;;;;;;;;;;
2023/03/09 02:10:53;;;;;;;1.3;1;;;;;;;;;;;;;
2023/03/09 02:13:19;;;;;;;1.6;0.9;;;;;;;;;;;;;
2023/03/09 02:15:46;;;;;;;1.3;1.2;;;;;;;;;;;;;
2023/03/09 02:18:11;;;;;;;0.9;0.9;;;;;;;;;;;;;
2023/03/09 02:20:39;;;;;;;1;0.8;;;;;;;;;;;;;
2023/03/09 02:23:04;;;;;;;0.7;0.7;;;;;;;;;;;;;
2023/03/09 02:25:30;;;;;;;1;0.9;;;;;;;;;;;;;
2023/03/09 02:27:55;;;;;;;1.6;1.5;;;;;;;;;;;;;
2023/03/09 02:30:20;;;;;;;1.1;1;;;;;;;;;;;;;
2023/03/09 02:32:45;;;;;;;0.8;0.8;;;;;;;;;;;;;
2023/03/09 02:35:13;;;;;;;1.3;0.8;;;;;;;;;;;;;
2023/03/09 02:37:38;;;;;;;0.8;0.8;;;;;;;;;;;;;
2023/03/09 02:40:07;;;;;;;1.3;0.9;;;;;;;;;;;;;
2023/03/09 02:42:34;;;;;;;1.5;1.4;;;;;;;;;;;;;
2023/03/09 02:45:00;;;;;;;1;0.9;;;;;;;;;;;;;
2023/03/09 02:47:26;;;;;;;1;0.9;;;;;;;;;;;;;
2023/03/09 02:49:51;;;;;;;1.3;0.8;;;;;;;;;;;;;
2023/03/09 02:52:17;;;;;;;3.1;2.9;;;;;;;;;;;;;
2023/03/09 02:54:42;;;;;;;1.8;1.7;;;;;;;;;;;;;
2023/03/09 02:57:07;;;;;;;2;1.9;;;;;;;;;;;;;
2023/03/09 02:59:32;;;;;;;0.8;0.8;;;;;;;;;;;;;
2023/03/09 03:02:01;;;;;;;1.1;1;;;;;;;;;;;;;
2023/03/09 03:04:26;;;;;;;1;0.7;;;;;;;;;;;;;
2023/03/09 03:06:53;;;;;;;1.5;0.8;;;;;;;;;;;;;
2023/03/09 03:09:18;;;;;;;0.7;0.7;;;;;;;;;;;;;
2023/03/09 03:11:44;;;;;;;0.8;0.8;;;;;;;;;;;;;
2023/03/09 03:14:09;;;;;;;1.4;0.7;;;;;;;;;;;;;
2023/03/09 03:16:35;;;;;;;0.7;0.7;;;;;;;;;;;;;
2023/03/09 03:19:00;;;;;;;0.7;0.7;;;;;;;;;;;;;
2023/03/09 03:21:26;;;;;;;1.1;0.7;;;;;;;;;;;;;
2023/03/09 03:23:52;;;;;;;0.8;0.7;;;;;;;;;;;;;
2023/03/09 03:26:17;;;;;;;1.4;0.9;;;;;;;;;;;;;
2023/03/09 03:28:42;;;;;;;1.1;1;;;;;;;;;;;;;
2023/03/09 03:31:08;;;;;;;1.3;0.9;;;;;;;;;;;;;
2023/03/09 03:33:34;;;;;;;0.6;0.6;;;;;;;;;;;;;
2023/03/09 03:35:58;;;;;;;0.8;0.7;;;;;;;;;;;;;
2023/03/09 03:38:24;;;;;;;1.1;0.9;;;;;;;;;;;;;
2023/03/09 03:40:51;;;;;;;0.5;0.5;;;;;;;;;;;;;
2023/03/09 03:43:16;;;;;;;0.9;0.7;;;;;;;;;;;;;
2023/03/09 03:45:42;;;;;;;1.2;0.6;;;;;;;;;;;;;
2023/03/09 03:48:07;;;;;;;0.6;0.6;;;;;;;;;;;;;
2023/03/09 03:50:33;;;;;;;0.7;0.6;;;;;;;;;;;;;
2023/03/09 03:52:59;;;;;;;1;0.7;;;;;;;;;;;;;
2023/03/09 03:55:24;;;;;;;0.6;0.6;;;;;;;;;;;;;
2023/03/09 03:57:49;;;;;;;0.6;0.6;;;;;;;;;;;;;
2023/03/09 04:02:36;;;;;;;0.8;0.7;;;;;;;7.16;90.91016;918.6399;;;;
2023/03/09 04:05:01;;;;;;;0.4;0.4;;;;;;;7.11;90.94629;918.8105;;;;
2023/03/09 04:07:27;;;;;;;1.1;0.7;;;;;;;7.09;91.41602;918.92;;;;
2023/03/09 04:09:51;;;;;;;0.6;0.6;;;;;;;7.25;90.49902;918.8134;;;;
2023/03/09 04:12:22;;;;;;;0.8;0.8;;;;;;;7.27;90.28906;919.0151;;;;
2023/03/09 04:14:47;;;;;;;1.5;1.1;;;;;;;7.03;92.44629;919.0265;;;;
2023/03/09 04:17:15;;;;;;;1.5;1.1;;;;;;;6.77;93.85938;918.8106;;;;
2023/03/09 04:19:43;;;;;;;2;0.9;;;;;;;6.73;94.44043;918.7722;;;;
2023/03/09 04:22:08;;;;;;;1.5;1;;;;;;;6.8;94.43359;918.6473;;;;
2023/03/09 04:24:38;;;;;;;1.4;1;;;;;;;6.82;94.4375;918.8342;;;;
2023/03/09 04:27:03;;;;;;;1.9;1.3;;;;;;;6.79;94.92969;918.8721;;;;
2023/03/09 04:48:00;;;;;;;1.3;1.2;;;;;;;6.97;94.77637;919.0718;;;;
2023/03/09 04:50:28;;;;;;;1.4;1.3;;;;;;;7.06;95.09082;919.1418;;;;
2023/03/09 04:52:55;;;;;;;3;1.7;;;;;;;7.1;94.70508;919.1747;;;;
2023/03/09 04:55:26;;;;;;;1.4;1.1;;;;;;;7.1;93.96875;919.1691;;;;
2023/03/09 04:57:53;;;;;;;2.4;1.2;;;;;;;7.2;94.23926;919.18;;;;
2023/03/09 05:00:20;;;;;;;3.2;2.4;;;;;;;7.23;93.79395;919.2291;;;;
2023/03/09 05:02:52;;;;;;;2.2;1.5;;;;;;;7.08;94.1123;919.1447;;;;
2023/03/09 05:05:21;;;;;;;2.9;1.9;;;;;;;7.07;94.64063;919.2928;;;;
2023/03/09 05:07:50;;;;;;;2.3;2.1;;;;;;;7.03;95.05078;919.2022;;;;
2023/03/09 05:10:16;;;;;;;2;1.5;;;;;;;6.94;95.01953;919.3639;;;;
2023/03/09 05:12:44;;;;;;;1.4;1.3;;;;;;;6.86;95.40039;919.431;;;;
2023/03/09 05:15:16;;;;;;;1.8;1.5;;;;;;;6.84;95.19043;919.2975;;;;
2023/03/09 05:17:45;;;;;;;1.9;1.5;;;;;;;6.87;94.13184;919.1866;;;;
2023/03/09 05:20:11;;;;;;;1.4;1.2;;;;;;;6.89;94.4209;919.2141;;;;
2023/03/09 05:22:41;;;;;;;2;1.4;;;;;;;6.99;92.33691;919.0969;;;;
2023/03/09 05:25:15;;;;;;;1.9;1.3;;;;;;;7.1;93.7627;919.109;;;;
2023/03/09 05:27:47;;;;;;;3.2;1.5;;;;;;;7.15;93.69531;919.3981;;;;
2023/03/09 05:30:53;;;;;;;2.4;2.2;;;;;;;7.11;93.83301;919.6367;;;;
2023/03/09 05:33:21;;;;;;;1.9;1.7;;;;;;;7.06;94.46875;919.7977;;;;
2023/03/09 05:35:48;;;;;;;3.5;1.9;;;;;;;7.16;94.26367;919.9789;;;;
2023/03/09 05:38:12;;;;;;;2;1.7;;;;;;;7.08;94.58594;920.1838;;;;
2023/03/09 05:40:40;;;;;;;1.5;1.4;;;;;;;7.06;94.60449;920.305;;;;
2023/03/09 05:43:06;;;;;;;1.9;1.5;;;;;;;7.08;95.27637;920.5002;;;;
2023/03/09 05:45:36;;;;;;;1.8;1.3;;;;;;;7.1;95.97363;920.6053;;;;
2023/03/09 05:48:03;;;;;;;1.7;1.2;;;;;;;7.21;95.80273;920.6371;;;;
2023/03/09 05:50:28;;;;;;;2.2;1.4;;;;;;;7.24;95.52832;920.7615;;;;
2023/03/09 05:52:56;;;;;;;2.2;2;;;;;;;7.35;95.33691;920.7456;;;;
2023/03/09 05:55:22;;;;;;;2.9;2.1;;;;;;;7.47;94.86621;920.8283;;;;
2023/03/09 05:57:49;;;;;;;2.4;2.1;;;;;;;7.52;94.25195;920.9039;;;;
2023/03/09 06:00:15;;;;;;;2.5;1.8;;;;;;;7.55;94.02246;921.0366;;;;
2023/03/09 06:02:45;;;;;;;2.5;1.7;;;;;;;7.56;93.78418;921.13;;;;
2023/03/09 06:05:14;;;;;;;7.5;3.5;;;;;;;7.6;93.74805;921.2881;;;;
2023/03/09 06:07:43;;;;;;;7.8;3.8;;;;;;;7.58;93.97168;921.4546;;;;
2023/03/09 06:10:09;;;;;;;5;3.7;;;;;;;7.55;94.7002;921.4968;;;;
2023/03/09 06:12:37;;;;;;;3.4;2.4;;;;;;;7.42;95.28418;921.6314;;;;
2023/03/09 06:15:02;;;;;;;3.4;2.2;;;;;;;7.4;95.83594;921.6692;;;;
2023/03/09 06:17:34;;;;;;;3.9;2.3;;;;;;;7.44;95.90234;921.9116;;;;
2023/03/09 06:20:03;;;;;;;6.7;3.7;;;;;;;7.4;96.76563;922.051;;;;
2023/03/09 06:22:29;;;;;;;5.1;3.4;;;;;;;7.29;98.1123;922.1361;;;;
2023/03/09 06:24:55;;;;;;;5.1;2.8;;;;;;;7.45;97.90039;922.2258;;;;
2023/03/09 06:27:20;;;;;;;3.2;1.8;;;;;;;7.31;98.62598;922.4036;;;;
2023/03/09 06:29:50;;;;;;;3;1.7;;;;;;;7.32;98.83203;922.5017;;;;
2023/03/09 06:32:15;;;;;;;2.7;1.5;;;;;;;7.27;99.44531;922.5566;;;;
2023/03/09 06:34:46;;;;;;;2.2;1.6;;;;;;;7.28;100;922.665;;;;
2023/03/09 06:37:14;;;;;;;1.2;0.5;;;;;;;7.4;100;922.9052;;;;
2023/03/09 06:39:39;;;;;;;1.4;0.8;;;;;;;7.52;100;923.1205;;;;
2023/03/09 06:42:05;;;;;;;2.3;1.6;;;;;;;7.62;99.70801;923.1971;;;;
2023/03/09 06:44:34;;;;;;;2.4;1.6;;;;;;;7.63;99.2998;923.1361;;;;
2023/03/09 06:47:04;;;;;;;4.2;2.7;;;;;;;7.65;99.75781;923.1939;;;;
2023/03/09 06:49:29;;;;;;;4.5;2.8;;;;;;;7.68;99.47168;923.1596;;;;
2023/03/09 06:51:58;;;;;;;5.1;3.6;;;;;;;7.65;99.71484;923.2659;;;;
2023/03/09 06:54:23;;;;;;;5.1;3.4;;;;;;;7.6;99.88574;923.3798;;;;
2023/03/09 06:56:50;;;;;;;4.5;2.7;;;;;;;7.58;99.29004;923.4932;;;;
2023/03/09 06:59:15;;;;;;;3.1;2.1;;;;;;;7.63;98.77832;923.6066;;;;
2023/03/09 07:05:07;;;;;;;3.3;2.3;;;;;;;7.74;97.85059;923.5309;;;;
2023/03/09 07:07:38;;;;;;;2.5;1.7;;;;;;;7.68;97.40723;923.5264;;;;
2023/03/09 07:10:11;;;;;;;2.5;1.3;;;;;;;7.75;97.24219;923.5237;;;;
2023/03/09 07:12:36;;;;;;;1.6;1.3;;;;;;;7.74;96.76367;923.6442;;;;
2023/03/09 07:15:01;;;;;;;1.8;1.2;;;;;;;7.66;96.79004;923.7094;;;;
2023/03/09 07:17:29;;;;;;;2.5;1.5;;;;;;;7.62;97.29297;923.7072;;;;
2023/03/09 07:19:56;;;;;;;3.8;1.6;;;;;;;7.66;97.18555;923.7665;;;;
2023/03/09 07:22:21;;;;;;;2.1;1.2;;;;;;;7.86;97.20996;923.766;;;;
2023/03/09 07:24:47;;;;;;;4.7;3.5;;;;;;;7.95;95.85645;923.8084;;;;
2023/03/09 07:27:12;;;;;;;3.9;2.8;;;;;;;7.98;95.86523;923.817;;;;
2023/03/09 07:29:40;;;;;;;2.3;2;;;;;;;8.11;95.71191;923.8817;;;;
2023/03/09 07:32:03;;;;;;;1.7;1.3;;;;;;;7.97;95.33887;923.8908;;;;
2023/03/09 07:34:30;;;;;;;2.7;1.5;;;;;;;8.01;97.08594;923.9258;;;;
2023/03/09 07:36:55;;;;;;;1.2;0.8;;;;;;;8.3;96.54883;923.8881;;;;
2023/03/09 07:39:20;;;;;;;1;0.8;;;;;;;8.5;95.02344;923.9883;;;;
2023/03/09 07:41:52;;;;;;;2.1;1.5;;;;;;;8.58;93.62207;924.033;;;;
2023/03/09 07:44:23;;;;;;;2.1;1.9;;;;;;;8.54;92.73926;924.0927;;;;
2023/03/09 07:46:52;;;;;;;3.8;3.2;;;;;;;8.6;92.95605;924.1542;;;;
2023/03/09 07:49:24;;;;;;;2.2;1.7;;;;;;;8.75;92.99805;924.3116;;;;
2023/03/09 07:51:49;;;;;;;3.3;2.4;;;;;;;8.71;92.06934;924.3729;;;;
2023/03/09 07:54:17;;;;;;;4.8;3;;;;;;;8.69;92.71387;924.4135;;;;
2023/03/09 07:56:52;;;;;;;1.4;1.3;;;;;;;8.73;91.90234;924.5545;;;;
2023/03/09 07:59:16;;;;;;;3;1.7;;;;;;;8.77;92.13965;924.5756;;;;
2023/03/09 08:01:45;;;;;;;2.7;1.8;;;;;;;8.88;92.27637;924.5854;;;;
2023/03/09 08:04:16;;;;;;;2.3;1.6;;;;;;;8.9;91.42773;924.7981;;;;
2023/03/09 08:06:45;;;;;;;2.6;1.4;;;;;;;8.98;91.04688;924.765;;;;
2023/03/09 08:09:12;;;;;;;1;0.9;;;;;;;8.71;90.14648;924.7816;;;;
2023/03/09 08:11:35;;;;;;;1.5;1;;;;;;;8.63;91.10645;924.9557;;;;
2023/03/09 08:14:06;;;;;;;1.5;1.2;;;;;;;8.64;91.62207;924.9755;;;;
2023/03/09 08:16:33;;;;;;;2.2;1.5;;;;;;;8.72;91.86914;924.9981;;;;
2023/03/09 08:19:03;;;;;;;2.7;1.5;;;;;;;8.89;91.02734;924.9014;;;;
2023/03/09 08:21:34;;;;;;;2.9;1.6;;;;;;;9.06;90.86816;924.9864;;;;
2023/03/09 08:23:59;;;;;;;2.9;1.6;;;;;;;9.18;90.0752;925.0586;;;;
2023/03/09 08:26:27;;;;;;;2.8;1.9;;;;;;;9.14;90.7832;924.9858;;;;
2023/03/09 08:28:52;;;;;;;3.5;2.5;;;;;;;9.56;89.67871;925.0332;;;;
2023/03/09 08:31:18;;;;;;;4.2;2.8;;;;;;;9.56;89.09766;925.1119;;;;
2023/03/09 08:33:43;;;;;;;3.9;3.1;;;;;;;9.8;88.72168;925.126;;;;
2023/03/09 08:36:11;;;;;;;2.6;2.2;;;;;;;10.23;87.49902;925.1827;;;;
2023/03/09 08:38:36;;;;;;;1.5;1;;;;;;;10.38;85.72656;925.1785;;;;
2023/03/09 08:41:04;;;;;;;0.6;0.5;;;;;;;11.61;82.19141;925.037;;;;
2023/03/09 08:43:29;;;;;;;1.5;0.8;;;;;;;12.21;78.54883;925.1691;;;;
2023/03/09 08:45:56;;;;;;;0.4;0.4;;;;;;;13.88;72.67188;925.0437;;;;
2023/03/09 08:48:21;;;;;;;0.5;0.5;;;;;;;15.13;63.3125;924.9079;;;;
2023/03/09 08:50:46;;;;;;;1.6;0.6;;;;;;;16.7;59.8125;924.9553;;;;
2023/03/09 08:53:13;;;;;;;0.8;0.7;;;;;;;17.46;56.07617;924.9511;;;;
2023/03/09 08:55:38;;;;;;;0.7;0.5;;;;;;;15.68;58.61035;924.8571;;;;
2023/03/09 08:58:07;;;;;;;0.9;0.3;;;;;;;14.51;58.36133;924.9327;;;;
2023/03/09 09:00:32;;;;;;;1;0.8;;;;;;;13.36;64.32129;924.9592;;;;
2023/03/09 09:03:00;;;;;;;1.1;0.6;;;;;;;12.55;68.69824;925.0051;;;;
2023/03/09 09:05:25;;;;;;;0.3;0.3;;;;;;;13.44;67.31055;924.92;;;;
2023/03/09 09:07:54;;;;;;;1.6;0.7;;;;;;;14.09;63.14063;924.9235;;;;
2023/03/09 09:10:24;;;;;;;1.9;0.7;;;;;;;16.57;57.06152;924.9665;;;;
2023/03/09 09:12:49;;;;;;;1.9;0.7;;;;;;;15.86;56.03418;924.9534;;;;
2023/03/09 09:15:19;;;;;;;1.7;0.8;;;;;;;14.26;63.31543;925.1467;;;;
2023/03/09 09:17:48;;;;;;;3;1.4;;;;;;;14.02;63.46387;924.9836;;;;
2023/03/09 09:20:13;;;;;;;2.8;1.5;;;;;;;12.92;67.90723;925.0925;;;;
2023/03/09 09:22:42;;;;;;;1.3;1.1;;;;;;;13.73;63.60449;924.8831;;;;
2023/03/09 09:25:08;;;;;;;1.3;1;;;;;;;13.07;69.11426;925.0034;;;;
2023/03/09 09:27:38;;;;;;;1.6;1.2;;;;;;;12.74;69.78418;924.9618;;;;
2023/03/09 09:30:03;;;;;;;1.7;1.4;;;;;;;12.48;70.75293;925.0017;;;;
2023/03/09 09:32:32;;;;;;;2.8;1.8;;;;;;;12.16;68.93457;924.8971;;;;
2023/03/09 09:34:57;;;;;;;0.8;0.4;;;;;;;11.54;68.72266;924.967;;;;
2023/03/09 09:37:23;;;;;;;3.6;1.9;;;;;;;12.12;68.53906;924.8818;;;;
2023/03/09 09:39:48;;;;;;;3.1;1.8;;;;;;;13.73;66.14746;924.8694;;;;
2023/03/09 09:42:16;;;;;;;1.9;1;;;;;;;15.31;58.75586;924.7849;;;;
2023/03/09 09:44:41;;;;;;;1.7;0.7;;;;;;;16.15;54.76465;924.7497;;;;
2023/03/09 09:47:10;;;;;;;1.1;0.8;;;;;;;17.15;51.57422;924.8187;;;;
2023/03/09 09:49:35;;;;;;;1.5;0.7;;;;;;;16.76;50.95996;924.8398;;;;
2023/03/09 09:52:00;;;;;;;2.7;1.5;;;;;;;17.17;49.74414;924.954;;;;
2023/03/09 09:54:26;;;;;;;1.7;0.6;;;;;;;17.74;49.99512;924.9799;;;;
2023/03/09 09:56:51;;;;;;;0.3;0.3;;;;;;;18.21;47.17676;924.9183;;;;
2023/03/09 09:59:16;;;;;;;2.4;2;;;;;;;18.18;48.24414;924.9927;;;;
2023/03/09 10:01:41;;;;;;;0.7;0.7;;;;;;;18.38;48.96289;925.0356;;;;
2023/03/09 10:04:06;;;;;;;0.6;0.4;;;;;;;17.32;49.12305;925.0309;;;;
2023/03/09 10:06:36;;;;;;;1.6;1.3;;;;;;;16.3;53.64844;925.0059;;;;
2023/03/09 10:09:01;;;;;;;0.4;0.4;;;;;;;17.73;48.45117;924.9723;;;;
2023/03/09 10:11:26;;;;;;;1;0.6;;;;;;;18.46;48.04102;924.9495;;;;
2023/03/09 10:13:53;;;;;;;0.4;0.4;;;;;;;19.45;44.64258;924.8798;;;;
2023/03/09 10:16:19;;;;;;;0.2;0.2;;;;;;;19.77;43.52051;924.8164;;;;
2023/03/09 10:18:45;;;;;;;0.8;0.4;;;;;;;20.02;47.64063;924.9391;;;;
2023/03/09 10:21:10;;;;;;;0.3;0.2;;;;;;;20.8;44.14746;924.8062;;;;
2023/03/09 10:23:35;;;;;;;0.3;0.2;;;;;;;19.81;46.83594;924.8735;;;;
2023/03/09 10:26:14;;;;;;;0.7;0.3;;;;;;;19.84;46.18555;924.9453;;;;
2023/03/09 10:28:42;;;;;;;0.3;0.3;;;;;;;20.84;45.83496;924.837;;;;
2023/03/09 10:31:08;;;;;;;0.3;0.3;;;;;;;21.44;42.49023;924.8162;;;;
2023/03/09 10:33:34;;;;;;;1.1;0.9;;;;;;;20.01;46.09863;925.0017;;;;
2023/03/09 10:35:59;;;;;;;0.3;0.2;;;;;;;20;43.15723;924.7866;;;;
2023/03/09 10:38:25;;;;;;;1.4;0.3;;;;;;;18.16;45.1748;924.7775;;;;
2023/03/09 10:40:51;;;;;;;0.4;0.2;;;;;;;19.27;45.88281;924.793;;;;
2023/03/09 10:43:16;;;;;;;0.5;0.3;;;;;;;19.65;45.68848;924.7391;;;;
2023/03/09 10:45:44;;;;;;;0.4;0.3;;;;;;;20.31;42.3125;924.7918;;;;
2023/03/09 10:48:09;;;;;;;0.3;0.3;;;;;;;19.52;39.55664;924.7177;;;;
2023/03/09 10:50:37;;;;;;;0.4;0.2;;;;;;;19.6;42.65234;924.6708;;;;
2023/03/09 10:53:02;;;;;;;2.9;0.6;;;;;;;18.93;46.08008;924.7606;;;;
2023/03/09 10:55:27;;;;;;;1.1;0.4;;;;;;;18.88;42.03613;924.7946;;;;
2023/03/09 10:57:57;;;;;;;0.3;0.2;;;;;;;19.23;40.00879;924.7517;;;;
2023/03/09 11:00:21;;;;;;;1.1;0.3;;;;;;;19.41;40.68848;924.7816;;;;
2023/03/09 11:02:53;;;;;;;0.6;0.4;;;;;;;18.88;44.27148;924.8533;;;;
2023/03/09 11:05:18;;;;;;;0.3;0.3;;;;;;;18.67;43.40039;924.7703;;;;
2023/03/09 11:07:44;;;;;;;1.1;0.6;;;;;;;18.32;47.33008;925.0308;;;;
2023/03/09 11:10:10;;;;;;;0.6;0.3;;;;;;;18.4;41.35156;924.6937;;;;
2023/03/09 11:12:37;;;;;;;0.4;0.3;;;;;;;18.86;37.92578;924.7258;;;;
2023/03/09 11:15:02;;;;;;;0.9;0.4;;;;;;;17.76;38.17969;924.7217;;;;
2023/03/09 11:17:32;;;;;;;0.6;0.4;;;;;;;16.85;44.86621;924.7991;;;;
2023/03/09 11:19:57;;;;;;;0.8;0.3;;;;;;;16.48;44.31934;924.7888;;;;
2023/03/09 11:22:23;;;;;;;0.7;0.4;;;;;;;17.21;41.50586;924.6855;;;;
2023/03/09 11:24:49;;;;;;;0.6;0.3;;;;;;;18.48;42.99805;924.8011;;;;
2023/03/09 11:27:14;;;;;;;0.3;0.3;;;;;;;18.75;36.69531;924.765;;;;
2023/03/09 11:29:39;;;;;;;0.5;0.2;;;;;;;17.39;35.49121;924.7625;;;;
2023/03/09 11:32:04;;;;;;;0.9;0.4;;;;;;;16.83;38.3418;924.7958;;;;
2023/03/09 11:34:35;;;;;;;0.8;0.4;;;;;;;16.62;41.9248;924.7882;;;;
2023/03/09 11:37:05;;;;;;;0.8;0.3;;;;;;;16.95;41.12109;924.8398;;;;
2023/03/09 11:39:30;;;;;;;1;0.3;;;;;;;16.56;40.78418;924.8061;;;;
2023/03/09 11:41:56;;;;;;;0.8;0.4;;;;;;;17.07;39.2793;924.7536;;;;
2023/03/09 11:44:21;;;;;;;0.8;0.4;;;;;;;18;43.75195;924.7542;;;;
2023/03/09 11:46:46;;;;;;;2.2;0.6;;;;;;;19.49;35.04395;924.6967;;;;
2023/03/09 11:49:11;;;;;;;0.6;0.5;;;;;;;20.3;34.64063;924.5881;;;;
2023/03/09 11:51:36;;;;;;;1;0.4;;;;;;;20.94;32.12988;924.6133;;;;
2023/03/09 11:54:03;;;;;;;0.7;0.4;;;;;;;18.23;34.39648;924.7822;;;;
2023/03/09 11:56:34;;;;;;;1.5;0.6;;;;;;;18.33;39.12402;924.7791;;;;
2023/03/09 11:58:59;;;;;;;2.6;1.2;;;;;;;19.53;35.01172;924.6445;;;;
2023/03/09 12:01:24;;;;;;;0.3;0.3;;;;;;;20.89;33.21484;924.6212;;;;
2023/03/09 12:03:52;;;;;;;1.9;0.9;;;;;;;21.38;32.92285;924.7137;;;;
2023/03/09 12:06:22;;;;;;;1.8;0.7;;;;;;;19.62;32.07031;924.6779;;;;
2023/03/09 12:08:47;;;;;;;1.5;0.4;;;;;;;19.07;35.20801;924.6177;;;;
2023/03/09 12:11:12;;;;;;;1.1;0.7;;;;;;;21.61;30.5752;924.5613;;;;
2023/03/09 12:13:42;;;;;;;2.5;0.7;;;;;;;22.5;28.40723;924.6658;;;;
2023/03/09 12:16:09;;;;;;;0.9;0.5;;;;;;;21.73;30.125;924.6777;;;;
2023/03/09 12:18:38;;;;;;;2.3;0.6;;;;;;;20.65;31.68848;924.7719;;;;
2023/03/09 12:21:03;;;;;;;0.6;0.4;;;;;;;20.1;31.64844;924.685;;;;
2023/03/09 12:23:28;;;;;;;0.5;0.3;;;;;;;20.67;32.01758;924.5489;;;;
2023/03/09 12:25:53;;;;;;;2.5;0.8;;;;;;;21.06;29.08691;924.5697;;;;
2023/03/09 12:28:32;;;;;;;1.1;0.4;;;;;;;19.87;30.6875;924.5939;;;;
2023/03/09 12:30:59;;;;;;;1.1;0.5;;;;;;;20.28;31.34668;924.5042;;;;
2023/03/09 12:33:29;;;;;;;5.2;0.9;;;;;;;22.61;28.56543;924.4609;;;;
2023/03/09 12:36:00;;;;;;;1.5;0.8;;;;;;;21.55;29.42285;924.5397;;;;
2023/03/09 12:38:26;;;;;;;0.7;0.5;;;;;;;18.83;32.93164;924.5773;;;;
2023/03/09 12:40:54;;;;;;;1.3;0.6;;;;;;;19.38;34.12598;924.6061;;;;
2023/03/09 12:43:21;;;;;;;0.7;0.4;;;;;;;19.23;32.03027;924.524;;;;
2023/03/09 12:45:45;;;;;;;0.6;0.5;;;;;;;19.58;31.61133;924.5394;;;;
2023/03/09 12:48:11;;;;;;;0.6;0.3;;;;;;;19.32;31.93066;924.4814;;;;
2023/03/09 12:50:36;;;;;;;1;0.4;;;;;;;18.98;33.43164;924.4252;;;;
2023/03/09 12:53:03;;;;;;;0.8;0.5;;;;;;;17.57;33.02246;924.4052;;;;
2023/03/09 12:55:29;;;;;;;0.9;0.4;;;;;;;17.2;35.00098;924.4205;;;;
2023/03/09 12:57:54;;;;;;;0.8;0.4;;;;;;;16.72;34.25586;924.4216;;;;
2023/03/09 13:00:21;;;;;;;0.8;0.3;;;;;;;16.82;36.60449;924.4246;;;;
2023/03/09 13:02:51;;;;;;;1.9;0.5;;;;;;;18.32;33.18359;924.4089;;;;
2023/03/09 13:05:17;;;;;;;1.1;0.5;;;;;;;18.45;32.1709;924.3703;;;;
2023/03/09 13:07:44;;;;;;;1.6;0.5;;;;;;;17.84;34.25098;924.3837;;;;
2023/03/09 13:10:18;;;;;;;2.7;0.7;;;;;;;17.04;33.16797;924.2996;;;;
2023/03/09 13:12:49;;;;;;;1.2;0.6;;;;;;;16.58;35.45996;924.2855;;;;
2023/03/09 13:15:22;;;;;;;1.5;0.5;;;;;;;16.34;35.56836;924.3147;;;;
2023/03/09 13:17:47;;;;;;;0.5;0.4;;;;;;;16.55;37.42676;924.4126;;;;
2023/03/09 13:20:15;;;;;;;0.3;0.3;;;;;;;16.54;35.19141;924.414;;;;
2023/03/09 13:22:46;;;;;;;0.4;0.3;;;;;;;16.85;34.8457;924.3602;;;;
2023/03/09 13:25:20;;;;;;;0.8;0.4;;;;;;;16.73;35.1377;924.3784;;;;
2023/03/09 13:27:44;;;;;;;7.7;1.2;;;;;;;18.23;32.71289;924.4155;;;;
2023/03/09 13:30:18;;;;;;;2;0.5;;;;;;;18.4;34.19043;924.3784;;;;
2023/03/09 13:32:44;;;;;;;1.5;0.6;;;;;;;17.71;34.00879;924.3483;;;;
2023/03/09 13:35:20;;;;;;;1.8;0.7;;;;;;;19.64;32.02441;924.2961;;;;
2023/03/09 13:37:45;;;;;;;1;0.4;;;;;;;22.91;26.36621;924.2385;;;;
2023/03/09 13:40:12;;;;;;;1.1;0.4;;;;;;;23.49;26.75391;924.1609;;;;
2023/03/09 13:42:37;;;;;;;2.1;0.9;;;;;;;23.38;25.74707;924.0679;;;;
2023/03/09 13:45:02;;;;;;;0.8;0.4;;;;;;;21.83;27.80176;924.2759;;;;
2023/03/09 13:47:27;;;;;;;1.1;0.5;;;;;;;23.23;26.14941;924.1875;;;;
2023/03/09 13:49:52;;;;;;;1.3;0.5;;;;;;;24.39;25.3457;924.2721;;;;
2023/03/09 13:52:19;;;;;;;3.5;0.6;;;;;;;23.64;25.51563;924.3002;;;;
2023/03/09 13:54:42;;;;;;;1.9;0.6;;;;;;;26.36;22.79492;924.2739;;;;
2023/03/09 13:57:14;;;;;;;0.7;0.3;;;;;;;26.78;20.80176;924.2688;;;;
2023/03/09 13:59:38;;;;;;;3.6;1.7;;;;;;;26.41;22.01563;924.3088;;;;
2023/03/09 14:02:03;;;;;;;0.4;0.4;;;;;;;25.17;23.18262;924.217;;;;
2023/03/09 14:04:30;;;;;;;0.5;0.5;;;;;;;27.37;20.72266;924.1685;;;;
2023/03/09 14:06:55;;;;;;;0.9;0.4;;;;;;;25.79;21.14648;924.157;;;;
2023/03/09 14:09:20;;;;;;;0.4;0.4;;;;;;;23.96;23.27344;924.0588;;;;
2023/03/09 14:11:45;;;;;;;1.1;0.8;;;;;;;23.24;26.05566;924.2256;;;;
2023/03/09 14:14:12;;;;;;;0.8;0.5;;;;;;;24.75;22.7832;924.1339;;;;
2023/03/09 14:16:37;;;;;;;0.7;0.5;;;;;;;25.82;22.0459;924.1926;;;;
2023/03/09 14:19:08;;;;;;;0.8;0.4;;;;;;;22.28;24.10059;924.2671;;;;
2023/03/09 14:21:35;;;;;;;2;0.5;;;;;;;20.5;27.89258;924.1606;;;;
2023/03/09 14:24:01;;;;;;;1.2;0.7;;;;;;;19.96;27.76563;924.1728;;;;
2023/03/09 14:26:30;;;;;;;1;0.5;;;;;;;20.64;27.87891;924.1791;;;;
2023/03/09 14:28:55;;;;;;;0.6;0.6;;;;;;;20.02;28.67969;924.177;;;;
2023/03/09 14:31:25;;;;;;;1.6;0.6;;;;;;;18.36;29.74609;924.0975;;;;
2023/03/09 14:33:50;;;;;;;1.4;0.4;;;;;;;17.45;32.17871;924.2031;;;;
2023/03/09 14:36:15;;;;;;;1.8;0.6;;;;;;;18.55;31.71289;924.1775;;;;
2023/03/09 14:38:42;;;;;;;0.9;0.4;;;;;;;19.06;29.83984;924.1277;;;;
2023/03/09 14:41:08;;;;;;;1.2;0.5;;;;;;;18.83;31.05762;924.0867;;;;
2023/03/09 14:43:35;;;;;;;0.5;0.4;;;;;;;17.75;32.52539;924.1384;;;;
2023/03/09 14:45:58;;;;;;;1.5;0.5;;;;;;;18.41;31.22559;924.0897;;;;
2023/03/09 14:48:23;;;;;;;1;0.4;;;;;;;18.67;31.84961;924.0647;;;;
2023/03/09 14:50:55;;;;;;;1.4;1.1;;;;;;;18.53;32.54883;924.0686;;;;
2023/03/09 14:53:23;;;;;;;3.4;0.8;;;;;;;19.45;30.9502;924.0234;;;;
2023/03/09 14:55:48;;;;;;;0.9;0.4;;;;;;;20.54;29.54297;924.0513;;;;
2023/03/09 14:58:17;;;;;;;1.2;0.7;;;;;;;21.17;29.71387;924.0789;;;;
2023/03/09 15:00:41;;;;;;;1.7;0.6;;;;;;;21.14;28.21387;924.0469;;;;
2023/03/09 15:03:08;;;;;;;1.1;0.4;;;;;;;21.01;28.74414;924.0541;;;;
2023/03/09 15:05:33;;;;;;;0.7;0.4;;;;;;;20.47;27.49414;924.0991;;;;
2023/03/09 15:08:05;;;;;;;1.2;0.6;;;;;;;19.78;28.01074;924.0381;;;;
2023/03/09 15:10:36;;;;;;;1.6;0.8;;;;;;;19.63;28.56055;924.0129;;;;
2023/03/09 15:13:07;;;;;;;1.1;0.7;;;;;;;20.26;28.66016;923.9952;;;;
2023/03/09 15:15:32;;;;;;;1.5;0.8;;;;;;;20.58;27.88672;923.9849;;;;
2023/03/09 15:18:00;;;;;;;1.8;0.4;;;;;;;20.46;28.27637;923.9366;;;;
2023/03/09 15:20:25;;;;;;;0.9;0.5;;;;;;;19.47;28.71387;924.0015;;;;
2023/03/09 15:22:54;;;;;;;1.9;0.9;;;;;;;18.76;29.86621;924.0284;;;;
2023/03/09 15:25:19;;;;;;;1.7;0.4;;;;;;;18.26;30.45898;924.0117;;;;
2023/03/09 15:27:48;;;;;;;0.7;0.4;;;;;;;17.41;30.44727;924.0303;;;;
2023/03/09 15:30:12;;;;;;;2.6;0.8;;;;;;;16.89;32.17285;923.9645;;;;
2023/03/09 15:32:37;;;;;;;1;0.9;;;;;;;16.89;34.66309;924.0016;;;;
2023/03/09 15:35:03;;;;;;;1.2;0.8;;;;;;;16.83;35.74707;924.0055;;;;
2023/03/09 15:37:28;;;;;;;6.2;4;;;;;;;16.77;36.5293;924.0204;;;;
2023/03/09 15:39:59;;;;;;;3.3;2.7;;;;;;;16.71;36.39746;923.9824;;;;
2023/03/09 15:42:24;;;;;;;2.2;1.6;;;;;;;16.75;35.11523;923.948;;;;
2023/03/09 15:44:55;;;;;;;5.1;2.1;;;;;;;16.66;37.05273;923.8868;;;;
2023/03/09 15:47:29;;;;;;;3.2;1.3;;;;;;;16.42;39.67188;923.9119;;;;
2023/03/09 15:49:59;;;;;;;2.8;1.5;;;;;;;16.3;38.94434;923.8574;;;;
2023/03/09 15:52:24;;;;;;;2.9;1.7;;;;;;;16.24;37.33008;923.8329;;;;
2023/03/09 15:54:50;;;;;;;7.5;2.9;;;;;;;16.23;40.13965;923.8608;;;;
2023/03/09 15:57:19;;;;;;;5.1;4.5;;;;;;;16.15;40.74512;923.8312;;;;
2023/03/09 15:59:51;;;;;;;2.6;2.3;;;;;;;15.5;42.19824;923.8158;;;;
2023/03/09 16:02:15;;;;;;;3.1;2.2;;;;;;;15.18;42.72168;923.8624;;;;
2023/03/09 16:04:45;;;;;;;6.7;4.2;;;;;;;15.1;41.76758;923.8585;;;;
2023/03/09 16:07:10;;;;;;;6.3;3;;;;;;;14.94;43.14844;923.8439;;;;